sensor_id;sensor_type;location;lat;lon;timestamp;temperature;humidity
80964;DHT22;70425;59.322;13.486;2023-06-14T00:11:24;13.50;99.90
80964;DHT22;70425;59.322;13.486;2023-06-14T00:14:15;13.50;99.90
80964;DHT22;70425;59.322;13.486;2023-06-14T00:17:04;13.50;99.90
80964;DHT22;70425;59.322;13.486;2023-06-14T00:19:54;13.50;99.90
80964;DHT22;70425;59.322;13.486;2023-06-14T00:22:44;13.40;99.90
80964;DHT22;70425;59.322;13.486;2023-06-14T00:25:34;13.40;99.90
80964;DHT22;70425;59.322;13.486;2023-06-14T00:28:23;13.30;99.90
80964;DHT22;70425;59.322;13.486;2023-06-14T00:31:13;13.30;99.90
80964;DHT22;70425;59.322;13.486;2023-06-14T00:34:05;13.30;99.90
80964;DHT22;70425;59.322;13.486;2023-06-14T00:36:55;13.30;99.90
80964;DHT22;70425;59.322;13.486;2023-06-14T00:39:44;13.30;99.90
80964;DHT22;70425;59.322;13.486;2023-06-14T00:42:33;13.30;99.90
80964;DHT22;70425;59.322;13.486;2023-06-14T00:45:23;13.30;99.90
80964;DHT22;70425;59.322;13.486;2023-06-14T00:48:12;13.20;99.90
80964;DHT22;70425;59.322;13.486;2023-06-14T00:51:02;13.30;99.90
80964;DHT22;70425;59.322;13.486;2023-06-14T01:10:08;13.50;99.90
80964;DHT22;70425;59.322;13.486;2023-06-14T01:13:02;13.60;99.90
80964;DHT22;70425;59.322;13.486;2023-06-14T01:18:46;13.60;99.90
80964;DHT22;70425;59.322;13.486;2023-06-14T01:21:37;13.60;99.90
80964;DHT22;70425;59.322;13.486;2023-06-14T01:24:27;13.70;99.90
80964;DHT22;70425;59.322;13.486;2023-06-14T01:30:04;13.70;99.90
80964;DHT22;70425;59.322;13.486;2023-06-14T01:35:43;13.80;99.90
80964;DHT22;70425;59.322;13.486;2023-06-14T01:38:34;13.80;99.90
80964;DHT22;70425;59.322;13.486;2023-06-14T01:44:20;13.90;99.90
80964;DHT22;70425;59.322;13.486;2023-06-14T01:47:09;13.80;99.90
80964;DHT22;70425;59.322;13.486;2023-06-14T01:49:58;13.80;99.90
80964;DHT22;70425;59.322;13.486;2023-06-14T01:52:48;13.80;99.90
80964;DHT22;70425;59.322;13.486;2023-06-14T01:55:40;13.80;99.90
80964;DHT22;70425;59.322;13.486;2023-06-14T01:58:30;13.90;99.90
80964;DHT22;70425;59.322;13.486;2023-06-14T02:01:21;13.90;99.90
80964;DHT22;70425;59.322;13.486;2023-06-14T02:04:12;13.90;99.90
80964;DHT22;70425;59.322;13.486;2023-06-14T02:07:01;13.90;99.90
80964;DHT22;70425;59.322;13.486;2023-06-14T02:09:50;13.80;99.90
80964;DHT22;70425;59.322;13.486;2023-06-14T02:42:10;13.70;99.90
80964;DHT22;70425;59.322;13.486;2023-06-14T02:45:00;13.60;99.90
80964;DHT22;70425;59.322;13.486;2023-06-14T02:47:50;13.60;99.90
80964;DHT22;70425;59.322;13.486;2023-06-14T02:50:40;13.60;99.90
80964;DHT22;70425;59.322;13.486;2023-06-14T02:53:31;13.60;99.90
80964;DHT22;70425;59.322;13.486;2023-06-14T02:56:20;13.60;99.90
80964;DHT22;70425;59.322;13.486;2023-06-14T02:59:09;13.70;99.90
80964;DHT22;70425;59.322;13.486;2023-06-14T03:02:01;13.70;99.90
80964;DHT22;70425;59.322;13.486;2023-06-14T03:04:52;13.70;99.90
80964;DHT22;70425;59.322;13.486;2023-06-14T03:07:42;13.60;99.90
80964;DHT22;70425;59.322;13.486;2023-06-14T03:10:33;13.60;99.90
80964;DHT22;70425;59.322;13.486;2023-06-14T03:13:23;13.60;99.90
80964;DHT22;70425;59.322;13.486;2023-06-14T03:16:14;13.60;99.90
80964;DHT22;70425;59.322;13.486;2023-06-14T03:19:06;13.70;99.90
80964;DHT22;70425;59.322;13.486;2023-06-14T03:59:44;14.70;99.90
80964;DHT22;70425;59.322;13.486;2023-06-14T04:02:35;14.80;99.90
80964;DHT22;70425;59.322;13.486;2023-06-14T04:05:25;14.90;99.90
80964;DHT22;70425;59.322;13.486;2023-06-14T04:08:20;15.00;99.90
80964;DHT22;70425;59.322;13.486;2023-06-14T04:11:11;15.40;99.90
80964;DHT22;70425;59.322;13.486;2023-06-14T04:14:03;15.90;99.90
80964;DHT22;70425;59.322;13.486;2023-06-14T04:16:55;16.50;99.90
80964;DHT22;70425;59.322;13.486;2023-06-14T04:23:33;17.80;99.90
80964;DHT22;70425;59.322;13.486;2023-06-14T04:26:29;18.90;99.90
80964;DHT22;70425;59.322;13.486;2023-06-14T04:29:30;19.30;99.90
80964;DHT22;70425;59.322;13.486;2023-06-14T04:56:09;21.20;99.90
80964;DHT22;70425;59.322;13.486;2023-06-14T04:59:26;21.00;99.90
80964;DHT22;70425;59.322;13.486;2023-06-14T05:02:42;20.90;99.90
80964;DHT22;70425;59.322;13.486;2023-06-14T05:05:40;20.70;99.90
80964;DHT22;70425;59.322;13.486;2023-06-14T05:08:51;20.80;99.90
80964;DHT22;70425;59.322;13.486;2023-06-14T05:12:11;21.00;99.90
80964;DHT22;70425;59.322;13.486;2023-06-14T05:15:21;21.00;99.90
80964;DHT22;70425;59.322;13.486;2023-06-14T05:32:45;21.50;99.90
80964;DHT22;70425;59.322;13.486;2023-06-14T05:35:41;21.20;99.90
80964;DHT22;70425;59.322;13.486;2023-06-14T06:07:42;21.60;99.90
80964;DHT22;70425;59.322;13.486;2023-06-14T06:10:40;21.90;99.90
80964;DHT22;70425;59.322;13.486;2023-06-14T06:16:56;22.60;99.90
80964;DHT22;70425;59.322;13.486;2023-06-14T06:19:45;23.50;99.90
80964;DHT22;70425;59.322;13.486;2023-06-14T06:22:38;23.10;99.90
80964;DHT22;70425;59.322;13.486;2023-06-14T06:25:41;22.60;99.90
80964;DHT22;70425;59.322;13.486;2023-06-14T06:28:52;23.00;99.90
80964;DHT22;70425;59.322;13.486;2023-06-14T06:32:00;22.90;99.90
80964;DHT22;70425;59.322;13.486;2023-06-14T06:34:52;23.10;99.90
80964;DHT22;70425;59.322;13.486;2023-06-14T06:37:43;23.00;99.90
80964;DHT22;70425;59.322;13.486;2023-06-14T06:40:35;23.50;99.90
80964;DHT22;70425;59.322;13.486;2023-06-14T06:43:37;24.00;99.90
80964;DHT22;70425;59.322;13.486;2023-06-14T06:46:33;24.50;99.90
80964;DHT22;70425;59.322;13.486;2023-06-14T06:52:22;24.10;99.90
80964;DHT22;70425;59.322;13.486;2023-06-14T06:55:15;24.40;99.90
80964;DHT22;70425;59.322;13.486;2023-06-14T06:58:09;24.60;99.90
80964;DHT22;70425;59.322;13.486;2023-06-14T07:01:09;25.00;99.90
80964;DHT22;70425;59.322;13.486;2023-06-14T07:28:52;25.20;99.90
80964;DHT22;70425;59.322;13.486;2023-06-14T07:31:40;25.30;99.90
80964;DHT22;70425;59.322;13.486;2023-06-14T07:34:31;25.50;99.90
80964;DHT22;70425;59.322;13.486;2023-06-14T07:37:21;26.00;99.90
80964;DHT22;70425;59.322;13.486;2023-06-14T07:56:02;26.10;99.90
80964;DHT22;70425;59.322;13.486;2023-06-14T07:58:50;26.50;99.90
80964;DHT22;70425;59.322;13.486;2023-06-14T08:01:39;26.60;99.90
80964;DHT22;70425;59.322;13.486;2023-06-14T08:07:22;26.50;99.90
80964;DHT22;70425;59.322;13.486;2023-06-14T08:10:11;26.50;99.90
80964;DHT22;70425;59.322;13.486;2023-06-14T08:15:42;27.00;99.90
80964;DHT22;70425;59.322;13.486;2023-06-14T08:18:32;27.00;99.90
80964;DHT22;70425;59.322;13.486;2023-06-14T08:21:21;27.00;99.90
80964;DHT22;70425;59.322;13.486;2023-06-14T08:24:14;27.20;99.90
80964;DHT22;70425;59.322;13.486;2023-06-14T08:27:03;26.90;99.90
80964;DHT22;70425;59.322;13.486;2023-06-14T08:29:54;26.30;99.90
80964;DHT22;70425;59.322;13.486;2023-06-14T08:36:49;26.00;99.90
80964;DHT22;70425;59.322;13.486;2023-06-14T08:39:38;26.00;99.90
80964;DHT22;70425;59.322;13.486;2023-06-14T08:42:28;25.80;99.90
80964;DHT22;70425;59.322;13.486;2023-06-14T08:45:17;26.00;99.90
80964;DHT22;70425;59.322;13.486;2023-06-14T08:48:08;26.10;99.90
80964;DHT22;70425;59.322;13.486;2023-06-14T08:50:58;26.10;99.90
80964;DHT22;70425;59.322;13.486;2023-06-14T08:53:53;26.30;99.90
80964;DHT22;70425;59.322;13.486;2023-06-14T08:56:44;26.40;99.90
80964;DHT22;70425;59.322;13.486;2023-06-14T08:59:35;26.60;99.90
80964;DHT22;70425;59.322;13.486;2023-06-14T09:02:25;27.30;99.90
80964;DHT22;70425;59.322;13.486;2023-06-14T09:05:14;27.50;99.90
80964;DHT22;70425;59.322;13.486;2023-06-14T09:08:05;27.30;99.90
80964;DHT22;70425;59.322;13.486;2023-06-14T09:10:54;27.50;99.90
80964;DHT22;70425;59.322;13.486;2023-06-14T09:17:29;27.90;99.90
80964;DHT22;70425;59.322;13.486;2023-06-14T09:20:18;28.10;99.90
80964;DHT22;70425;59.322;13.486;2023-06-14T09:23:08;28.40;99.90
80964;DHT22;70425;59.322;13.486;2023-06-14T09:28:51;28.20;99.90
80964;DHT22;70425;59.322;13.486;2023-06-14T09:47:54;27.90;99.90
80964;DHT22;70425;59.322;13.486;2023-06-14T09:50:45;27.90;99.90
80964;DHT22;70425;59.322;13.486;2023-06-14T09:53:36;28.00;99.90
80964;DHT22;70425;59.322;13.486;2023-06-14T09:56:27;27.90;99.90
80964;DHT22;70425;59.322;13.486;2023-06-14T09:59:20;27.80;99.90
80964;DHT22;70425;59.322;13.486;2023-06-14T10:02:18;27.80;99.90
80964;DHT22;70425;59.322;13.486;2023-06-14T10:05:07;27.50;99.90
80964;DHT22;70425;59.322;13.486;2023-06-14T10:07:59;27.40;99.90
80964;DHT22;70425;59.322;13.486;2023-06-14T10:13:40;27.70;99.90
80964;DHT22;70425;59.322;13.486;2023-06-14T10:16:31;28.00;99.90
80964;DHT22;70425;59.322;13.486;2023-06-14T10:52:27;29.10;99.90
80964;DHT22;70425;59.322;13.486;2023-06-14T10:55:17;28.30;99.90
80964;DHT22;70425;59.322;13.486;2023-06-14T10:58:08;28.10;99.90
80964;DHT22;70425;59.322;13.486;2023-06-14T11:00:56;28.30;99.90
80964;DHT22;70425;59.322;13.486;2023-06-14T11:03:52;28.60;99.90
80964;DHT22;70425;59.322;13.486;2023-06-14T11:06:48;29.00;99.90
80964;DHT22;70425;59.322;13.486;2023-06-14T11:09:54;29.00;99.90
80964;DHT22;70425;59.322;13.486;2023-06-14T11:12:42;28.70;99.90
80964;DHT22;70425;59.322;13.486;2023-06-14T11:15:34;28.00;99.90
80964;DHT22;70425;59.322;13.486;2023-06-14T11:18:23;27.50;99.90
80964;DHT22;70425;59.322;13.486;2023-06-14T11:21:15;27.50;99.90
80964;DHT22;70425;59.322;13.486;2023-06-14T11:24:02;27.30;99.90
80964;DHT22;70425;59.322;13.486;2023-06-14T11:26:51;27.50;99.90
80964;DHT22;70425;59.322;13.486;2023-06-14T11:29:40;27.70;99.90
80964;DHT22;70425;59.322;13.486;2023-06-14T11:32:32;27.60;99.90
80964;DHT22;70425;59.322;13.486;2023-06-14T11:35:23;28.00;99.90
80964;DHT22;70425;59.322;13.486;2023-06-14T11:43:36;27.70;99.90
80964;DHT22;70425;59.322;13.486;2023-06-14T11:46:26;27.20;99.90
80964;DHT22;70425;59.322;13.486;2023-06-14T11:49:15;27.10;99.90
80964;DHT22;70425;59.322;13.486;2023-06-14T11:52:05;26.80;99.90
80964;DHT22;70425;59.322;13.486;2023-06-14T11:54:54;26.50;99.90
80964;DHT22;70425;59.322;13.486;2023-06-14T11:57:43;26.50;99.90
80964;DHT22;70425;59.322;13.486;2023-06-14T12:00:32;26.90;99.90
80964;DHT22;70425;59.322;13.486;2023-06-14T12:03:24;26.80;99.90
80964;DHT22;70425;59.322;13.486;2023-06-14T12:06:14;26.50;99.90
80964;DHT22;70425;59.322;13.486;2023-06-14T12:09:05;26.40;99.90
80964;DHT22;70425;59.322;13.486;2023-06-14T12:12:02;26.70;99.90
80964;DHT22;70425;59.322;13.486;2023-06-14T12:14:51;27.00;99.90
80964;DHT22;70425;59.322;13.486;2023-06-14T12:17:41;27.00;99.90
80964;DHT22;70425;59.322;13.486;2023-06-14T12:36:39;26.70;99.90
80964;DHT22;70425;59.322;13.486;2023-06-14T12:39:29;26.70;99.90
80964;DHT22;70425;59.322;13.486;2023-06-14T12:42:19;26.50;99.90
80964;DHT22;70425;59.322;13.486;2023-06-14T12:45:14;26.30;99.90
80964;DHT22;70425;59.322;13.486;2023-06-14T12:48:03;26.60;99.90
80964;DHT22;70425;59.322;13.486;2023-06-14T12:50:54;27.00;99.90
80964;DHT22;70425;59.322;13.486;2023-06-14T12:53:43;27.10;99.90
80964;DHT22;70425;59.322;13.486;2023-06-14T12:56:32;27.00;99.90
80964;DHT22;70425;59.322;13.486;2023-06-14T13:02:15;26.90;99.90
80964;DHT22;70425;59.322;13.486;2023-06-14T13:05:04;26.70;99.90
80964;DHT22;70425;59.322;13.486;2023-06-14T13:07:55;26.70;99.90
80964;DHT22;70425;59.322;13.486;2023-06-14T13:10:43;26.50;99.90
80964;DHT22;70425;59.322;13.486;2023-06-14T13:13:32;26.40;99.90
80964;DHT22;70425;59.322;13.486;2023-06-14T13:16:21;26.30;99.90
80964;DHT22;70425;59.322;13.486;2023-06-14T13:19:10;26.10;99.90
80964;DHT22;70425;59.322;13.486;2023-06-14T13:21:59;25.80;99.90
80964;DHT22;70425;59.322;13.486;2023-06-14T13:24:48;25.70;99.90
80964;DHT22;70425;59.322;13.486;2023-06-14T13:27:37;25.40;99.90
80964;DHT22;70425;59.322;13.486;2023-06-14T13:30:26;25.20;99.90
80964;DHT22;70425;59.322;13.486;2023-06-14T13:33:15;25.10;99.90
80964;DHT22;70425;59.322;13.486;2023-06-14T13:36:04;24.90;99.90
80964;DHT22;70425;59.322;13.486;2023-06-14T13:55:17;25.90;99.90
80964;DHT22;70425;59.322;13.486;2023-06-14T13:58:05;26.10;99.90
80964;DHT22;70425;59.322;13.486;2023-06-14T14:00:54;26.00;99.90
80964;DHT22;70425;59.322;13.486;2023-06-14T14:03:44;25.80;99.90
80964;DHT22;70425;59.322;13.486;2023-06-14T14:06:34;25.80;99.90
80964;DHT22;70425;59.322;13.486;2023-06-14T14:51:40;26.30;99.90
80964;DHT22;70425;59.322;13.486;2023-06-14T14:54:47;26.30;99.90
80964;DHT22;70425;59.322;13.486;2023-06-14T14:57:45;26.10;99.90
80964;DHT22;70425;59.322;13.486;2023-06-14T15:00:39;26.00;99.90
80964;DHT22;70425;59.322;13.486;2023-06-14T15:03:28;26.00;99.90
80964;DHT22;70425;59.322;13.486;2023-06-14T15:06:16;26.10;99.90
80964;DHT22;70425;59.322;13.486;2023-06-14T15:09:08;26.10;99.90
80964;DHT22;70425;59.322;13.486;2023-06-14T15:29:18;25.10;99.90
80964;DHT22;70425;59.322;13.486;2023-06-14T15:32:08;25.20;99.90
80964;DHT22;70425;59.322;13.486;2023-06-14T15:37:37;25.40;99.90
80964;DHT22;70425;59.322;13.486;2023-06-14T15:40:26;25.40;99.90
80964;DHT22;70425;59.322;13.486;2023-06-14T15:43:16;25.30;99.90
80964;DHT22;70425;59.322;13.486;2023-06-14T15:46:05;25.20;99.90
80964;DHT22;70425;59.322;13.486;2023-06-14T15:48:53;25.20;99.90
80964;DHT22;70425;59.322;13.486;2023-06-14T16:07:56;25.50;99.90
80964;DHT22;70425;59.322;13.486;2023-06-14T16:10:45;25.50;99.90
80964;DHT22;70425;59.322;13.486;2023-06-14T16:13:34;25.30;99.90
80964;DHT22;70425;59.322;13.486;2023-06-14T16:16:23;25.30;99.90
80964;DHT22;70425;59.322;13.486;2023-06-14T16:19:12;24.90;99.90
80964;DHT22;70425;59.322;13.486;2023-06-14T16:22:00;24.70;99.90
80964;DHT22;70425;59.322;13.486;2023-06-14T16:24:49;24.80;99.90
80964;DHT22;70425;59.322;13.486;2023-06-14T16:27:37;24.90;99.90
80964;DHT22;70425;59.322;13.486;2023-06-14T16:30:26;24.90;99.90
80964;DHT22;70425;59.322;13.486;2023-06-14T16:33:59;25.10;99.90
80964;DHT22;70425;59.322;13.486;2023-06-14T16:36:48;25.20;99.90
80964;DHT22;70425;59.322;13.486;2023-06-14T16:39:36;24.90;99.90
80964;DHT22;70425;59.322;13.486;2023-06-14T16:42:25;24.70;99.90
80964;DHT22;70425;59.322;13.486;2023-06-14T16:45:14;24.70;99.90
80964;DHT22;70425;59.322;13.486;2023-06-14T16:50:55;24.70;99.90
80964;DHT22;70425;59.322;13.486;2023-06-14T16:53:44;24.90;99.90
80964;DHT22;70425;59.322;13.486;2023-06-14T16:56:33;25.10;99.90
80964;DHT22;70425;59.322;13.486;2023-06-14T16:59:21;25.30;99.90
80964;DHT22;70425;59.322;13.486;2023-06-14T17:02:10;25.30;99.90
80964;DHT22;70425;59.322;13.486;2023-06-14T17:04:59;25.30;99.90
80964;DHT22;70425;59.322;13.486;2023-06-14T17:23:52;25.70;99.90
80964;DHT22;70425;59.322;13.486;2023-06-14T17:29:21;25.70;99.90
80964;DHT22;70425;59.322;13.486;2023-06-14T17:32:11;25.80;99.90
80964;DHT22;70425;59.322;13.486;2023-06-14T17:35:00;25.80;99.90
80964;DHT22;70425;59.322;13.486;2023-06-14T17:37:49;25.80;99.90
80964;DHT22;70425;59.322;13.486;2023-06-14T17:43:30;25.80;99.90
80964;DHT22;70425;59.322;13.486;2023-06-14T17:46:19;25.20;99.90
80964;DHT22;70425;59.322;13.486;2023-06-14T17:49:08;24.80;99.90
80964;DHT22;70425;59.322;13.486;2023-06-14T17:51:56;24.60;99.90
80964;DHT22;70425;59.322;13.486;2023-06-14T17:54:44;24.30;99.90
80964;DHT22;70425;59.322;13.486;2023-06-14T17:57:33;24.40;99.90
80964;DHT22;70425;59.322;13.486;2023-06-14T18:00:22;24.40;99.90
80964;DHT22;70425;59.322;13.486;2023-06-14T18:03:12;24.30;99.90
80964;DHT22;70425;59.322;13.486;2023-06-14T18:08:46;24.30;99.90
80964;DHT22;70425;59.322;13.486;2023-06-14T18:11:35;24.00;99.90
80964;DHT22;70425;59.322;13.486;2023-06-14T18:14:23;24.00;99.90
80964;DHT22;70425;59.322;13.486;2023-06-14T18:17:13;23.90;99.90
80964;DHT22;70425;59.322;13.486;2023-06-14T18:20:01;24.00;99.90
80964;DHT22;70425;59.322;13.486;2023-06-14T18:22:51;24.00;99.90
80964;DHT22;70425;59.322;13.486;2023-06-14T18:25:41;24.20;99.90
80964;DHT22;70425;59.322;13.486;2023-06-14T18:28:30;24.20;99.90
80964;DHT22;70425;59.322;13.486;2023-06-14T18:34:13;24.10;99.90
80964;DHT22;70425;59.322;13.486;2023-06-14T18:37:04;24.00;99.90
80964;DHT22;70425;59.322;13.486;2023-06-14T18:39:54;24.10;99.90
80964;DHT22;70425;59.322;13.486;2023-06-14T18:42:42;24.20;99.90
80964;DHT22;70425;59.322;13.486;2023-06-14T18:45:31;24.30;99.90
80964;DHT22;70425;59.322;13.486;2023-06-14T18:48:20;24.10;99.90
80964;DHT22;70425;59.322;13.486;2023-06-14T19:18:02;23.20;99.90
80964;DHT22;70425;59.322;13.486;2023-06-14T19:34:19;22.90;99.90
80964;DHT22;70425;59.322;13.486;2023-06-14T19:39:48;22.40;99.90
80964;DHT22;70425;59.322;13.486;2023-06-14T19:42:37;22.30;99.90
80964;DHT22;70425;59.322;13.486;2023-06-14T19:45:26;22.10;99.90
80964;DHT22;70425;59.322;13.486;2023-06-14T19:48:15;21.90;99.90
80964;DHT22;70425;59.322;13.486;2023-06-14T19:51:03;21.80;99.90
80964;DHT22;70425;59.322;13.486;2023-06-14T19:56:40;21.50;99.90
80964;DHT22;70425;59.322;13.486;2023-06-14T19:59:29;21.30;99.90
80964;DHT22;70425;59.322;13.486;2023-06-14T20:02:18;21.20;99.90
80964;DHT22;70425;59.322;13.486;2023-06-14T20:05:08;21.00;99.90
80964;DHT22;70425;59.322;13.486;2023-06-14T20:07:57;20.90;99.90
80964;DHT22;70425;59.322;13.486;2023-06-14T20:10:46;20.80;99.90
80964;DHT22;70425;59.322;13.486;2023-06-14T20:13:35;20.60;99.90
80964;DHT22;70425;59.322;13.486;2023-06-14T20:16:24;20.40;99.90
80964;DHT22;70425;59.322;13.486;2023-06-14T20:19:12;20.30;99.90
80964;DHT22;70425;59.322;13.486;2023-06-14T20:22:01;20.30;99.90
80964;DHT22;70425;59.322;13.486;2023-06-14T20:24:49;20.20;99.90
80964;DHT22;70425;59.322;13.486;2023-06-14T20:27:38;20.10;99.90
80964;DHT22;70425;59.322;13.486;2023-06-14T20:33:06;19.90;99.90
80964;DHT22;70425;59.322;13.486;2023-06-14T20:38:41;19.90;99.90
80964;DHT22;70425;59.322;13.486;2023-06-14T20:41:30;19.80;99.90
80964;DHT22;70425;59.322;13.486;2023-06-14T20:44:18;19.70;99.90
80964;DHT22;70425;59.322;13.486;2023-06-14T20:47:09;19.50;99.90
80964;DHT22;70425;59.322;13.486;2023-06-14T20:49:59;19.50;99.90
80964;DHT22;70425;59.322;13.486;2023-06-14T20:52:49;19.50;99.90
80964;DHT22;70425;59.322;13.486;2023-06-14T20:55:38;19.50;99.90
80964;DHT22;70425;59.322;13.486;2023-06-14T20:58:26;19.40;99.90
80964;DHT22;70425;59.322;13.486;2023-06-14T21:01:15;19.40;99.90
80964;DHT22;70425;59.322;13.486;2023-06-14T21:04:04;19.40;99.90
80964;DHT22;70425;59.322;13.486;2023-06-14T21:06:53;19.30;99.90
80964;DHT22;70425;59.322;13.486;2023-06-14T21:09:42;19.20;99.90
80964;DHT22;70425;59.322;13.486;2023-06-14T21:12:32;19.00;99.90
80964;DHT22;70425;59.322;13.486;2023-06-14T21:18:33;18.90;99.90
80964;DHT22;70425;59.322;13.486;2023-06-14T21:35:00;18.90;99.90
80964;DHT22;70425;59.322;13.486;2023-06-14T21:37:49;18.40;99.90
80964;DHT22;70425;59.322;13.486;2023-06-14T21:40:37;18.40;99.90
80964;DHT22;70425;59.322;13.486;2023-06-14T21:43:29;18.20;99.90
80964;DHT22;70425;59.322;13.486;2023-06-14T21:46:19;18.10;99.90
80964;DHT22;70425;59.322;13.486;2023-06-14T21:49:08;18.00;99.90
80964;DHT22;70425;59.322;13.486;2023-06-14T21:51:56;17.90;99.90
80964;DHT22;70425;59.322;13.486;2023-06-14T21:57:26;17.90;99.90
80964;DHT22;70425;59.322;13.486;2023-06-14T22:00:17;17.90;99.90
80964;DHT22;70425;59.322;13.486;2023-06-14T22:03:09;17.90;99.90
80964;DHT22;70425;59.322;13.486;2023-06-14T22:05:58;17.90;99.90
80964;DHT22;70425;59.322;13.486;2023-06-14T22:08:47;17.90;99.90
80964;DHT22;70425;59.322;13.486;2023-06-14T22:11:36;17.80;99.90
80964;DHT22;70425;59.322;13.486;2023-06-14T22:14:25;17.90;99.90
80964;DHT22;70425;59.322;13.486;2023-06-14T22:20:00;17.90;99.90
80964;DHT22;70425;59.322;13.486;2023-06-14T22:22:50;17.80;99.90
80964;DHT22;70425;59.322;13.486;2023-06-14T22:25:39;17.90;99.90
80964;DHT22;70425;59.322;13.486;2023-06-14T22:28:27;17.90;99.90
80964;DHT22;70425;59.322;13.486;2023-06-14T22:31:17;17.80;99.90
80964;DHT22;70425;59.322;13.486;2023-06-14T22:34:06;17.80;99.90
80964;DHT22;70425;59.322;13.486;2023-06-14T22:36:55;17.80;99.90
80964;DHT22;70425;59.322;13.486;2023-06-14T22:42:28;17.70;99.90
80964;DHT22;70425;59.322;13.486;2023-06-14T22:45:17;17.70;99.90
80964;DHT22;70425;59.322;13.486;2023-06-14T22:48:07;17.70;99.90
80964;DHT22;70425;59.322;13.486;2023-06-14T22:50:56;17.70;99.90
80964;DHT22;70425;59.322;13.486;2023-06-14T22:53:44;17.60;99.90
80964;DHT22;70425;59.322;13.486;2023-06-14T22:59:13;17.40;99.90
80964;DHT22;70425;59.322;13.486;2023-06-14T23:02:04;17.30;99.90
80964;DHT22;70425;59.322;13.486;2023-06-14T23:04:53;17.20;99.90
80964;DHT22;70425;59.322;13.486;2023-06-14T23:07:42;17.20;99.90
80964;DHT22;70425;59.322;13.486;2023-06-14T23:13:11;17.10;99.90
80964;DHT22;70425;59.322;13.486;2023-06-14T23:16:01;16.90;99.90
80964;DHT22;70425;59.322;13.486;2023-06-14T23:18:50;17.00;99.90
80964;DHT22;70425;59.322;13.486;2023-06-14T23:24:18;16.90;99.90
80964;DHT22;70425;59.322;13.486;2023-06-14T23:27:08;16.90;99.90
80964;DHT22;70425;59.322;13.486;2023-06-14T23:29:57;16.80;99.90
80964;DHT22;70425;59.322;13.486;2023-06-14T23:32:45;16.50;99.90
80964;DHT22;70425;59.322;13.486;2023-06-14T23:35:34;16.40;99.90
80964;DHT22;70425;59.322;13.486;2023-06-14T23:38:22;16.40;99.90
80964;DHT22;70425;59.322;13.486;2023-06-14T23:41:11;16.40;99.90
80964;DHT22;70425;59.322;13.486;2023-06-14T23:44:01;16.40;99.90
80964;DHT22;70425;59.322;13.486;2023-06-14T23:46:52;16.20;99.90
80964;DHT22;70425;59.322;13.486;2023-06-14T23:49:42;16.10;99.90
80964;DHT22;70425;59.322;13.486;2023-06-14T23:52:31;16.20;99.90
80964;DHT22;70425;59.322;13.486;2023-06-14T23:55:21;16.20;99.90
80964;DHT22;70425;59.322;13.486;2023-06-14T23:58:09;16.20;99.90
